Terminal Aerodrome Forecast
Issued by NWS Mobile, AL

Home | Current Version | Previous Version | Text Only | Print | Product List | Glossary On
Versions: 1 2 3 4 5 6 7 8 9 10 11 12 13 14 15 16 17 18 19 20 21 22 23 24 25 26 27 28 29 30
985
FTUS44 KMOB 252321
TAFPNS
TAF
KPNS 252321Z 2600/2624 13005KT P6SM VCTS SCT030CB
      TEMPO 2600/2604 VRB10G20KT 3SM TSRA BKN025CB
     FM260400 35004KT P6SM SCT030 BKN250
     FM261200 34003KT P6SM VCTS SCT030CB BKN250=

USA.gov is the U.S. government's official web portal to all federal, state and local government web resources and services.